Terminal Aerodrome Forecast
Issued by NWS

Home | Current Version | Previous Version | Text Only | Print | Product List | Glossary On
Versions: 1 2 3 4 5 6 7 8 9 10 11 12 13 14 15 16 17 18 19 20 21 22 23 24 25 26 27 28 29 30 31 32 33 34 35 36 37 38 39 40
000
FTUS46 KOTX 240539
TAFCOE
TAF
KCOE 240539Z 2406/2506 13005KT P6SM OVC050
     FM241530 11005KT P6SM BKN030 OVC050
     FM241800 26004KT P6SM -SHRA BKN050 BKN090
     FM250200 14004KT P6SM SCT050
      AMD LTD TO CLD AND VIS=

USA.gov is the U.S. government's official web portal to all federal, state and local government web resources and services.